createdAt,value
2023-02-11T00:24:25.077Z,1039.17
2023-02-11T00:53:18.740Z,1039.22
2023-02-11T01:22:07.588Z,1038.88
2023-02-11T01:51:00.991Z,1038.8
2023-02-11T02:19:56.127Z,1038.39
2023-02-11T02:48:51.275Z,1038.22
2023-02-11T03:17:21.235Z,1038.26
2023-02-11T03:46:12.140Z,1038.12
2023-02-11T04:15:12.114Z,1038.33
2023-02-11T04:44:18.174Z,1038.29
2023-02-11T05:13:13.879Z,1038.12
2023-02-11T05:42:06.916Z,1038.06
2023-02-11T06:10:45.397Z,1037.69
2023-02-11T06:39:30.345Z,1037.57
2023-02-11T07:08:21.959Z,1038.14
2023-02-11T07:36:44.093Z,1038.1
2023-02-11T08:05:36.115Z,1038.21
2023-02-11T08:34:30.553Z,1038.31
2023-02-11T09:03:29.547Z,1038.45
2023-02-11T09:32:13.132Z,1038.53
2023-02-11T10:00:52.684Z,1038.45
2023-02-11T10:29:22.164Z,1038.5
2023-02-11T10:58:06.723Z,1038.33
2023-02-11T11:26:51.406Z,1037.65
2023-02-11T11:55:40.112Z,1037.4
2023-02-11T12:24:19.401Z,1037.36
2023-02-11T12:53:15.126Z,1037.3
2023-02-11T13:21:59.830Z,1036.97
2023-02-11T13:50:47.018Z,1036.66
2023-02-11T14:19:40.241Z,1036.74
2023-02-11T14:48:29.736Z,1036.51
2023-02-11T15:17:20.269Z,1036.53
2023-02-11T15:46:15.050Z,1036.62
2023-02-11T16:14:54.642Z,1036.69
2023-02-11T16:43:37.763Z,1036.98
2023-02-11T17:12:33.730Z,1037.27
2023-02-11T17:41:17.889Z,1037.25
2023-02-11T18:10:01.686Z,1037.28
2023-02-11T18:38:48.769Z,1037.5
2023-02-11T19:07:36.440Z,1037.64
2023-02-11T19:36:24.883Z,1037.73
2023-02-11T20:05:08.287Z,1037.57
2023-02-11T20:33:52.078Z,1037.57
2023-02-11T21:02:42.756Z,1037.67
2023-02-11T21:31:32.778Z,1037.76
2023-02-11T22:00:12.591Z,1037.88
2023-02-11T22:29:02.319Z,1038
2023-02-11T22:57:53.616Z,1037.95
2023-02-11T23:26:36.137Z,1038.15
2023-02-11T23:55:26.409Z,1038.17
